sensor_id;sensor_type;location;lat;lon;timestamp;P1;durP1;ratioP1;P2;durP2;ratioP2
2129;SDS011;1071;52.544;13.374;2023-03-20T00:00:44;5.87;;;5.37;;
2129;SDS011;1071;52.544;13.374;2023-03-20T00:03:16;5.13;;;4.60;;
2129;SDS011;1071;52.544;13.374;2023-03-20T00:05:43;5.00;;;4.50;;
2129;SDS011;1071;52.544;13.374;2023-03-20T00:08:10;5.27;;;4.50;;
2129;SDS011;1071;52.544;13.374;2023-03-20T00:10:38;3.77;;;3.40;;
2129;SDS011;1071;52.544;13.374;2023-03-20T00:13:11;3.60;;;3.27;;
2129;SDS011;1071;52.544;13.374;2023-03-20T00:15:42;4.30;;;4.00;;
2129;SDS011;1071;52.544;13.374;2023-03-20T00:18:13;3.53;;;3.23;;
2129;SDS011;1071;52.544;13.374;2023-03-20T00:20:42;4.77;;;4.20;;
2129;SDS011;1071;52.544;13.374;2023-03-20T00:23:10;3.43;;;3.13;;
2129;SDS011;1071;52.544;13.374;2023-03-20T00:25:37;3.80;;;3.40;;
2129;SDS011;1071;52.544;13.374;2023-03-20T00:31:03;4.00;;;3.67;;
2129;SDS011;1071;52.544;13.374;2023-03-20T00:33:31;4.30;;;4.00;;
2129;SDS011;1071;52.544;13.374;2023-03-20T00:35:58;4.50;;;4.10;;
2129;SDS011;1071;52.544;13.374;2023-03-20T00:38:25;3.77;;;3.47;;
2129;SDS011;1071;52.544;13.374;2023-03-20T00:40:52;4.18;;;3.65;;
2129;SDS011;1071;52.544;13.374;2023-03-20T00:43:19;5.00;;;4.10;;
2129;SDS011;1071;52.544;13.374;2023-03-20T00:45:48;4.22;;;3.90;;
2129;SDS011;1071;52.544;13.374;2023-03-20T00:48:17;3.63;;;3.33;;
2129;SDS011;1071;52.544;13.374;2023-03-20T00:50:45;4.40;;;4.03;;
2129;SDS011;1071;52.544;13.374;2023-03-20T00:53:13;3.77;;;3.47;;
2129;SDS011;1071;52.544;13.374;2023-03-20T00:55:40;3.70;;;3.40;;
2129;SDS011;1071;52.544;13.374;2023-03-20T00:58:08;3.60;;;3.30;;
2129;SDS011;1071;52.544;13.374;2023-03-20T01:00:37;3.80;;;3.50;;
2129;SDS011;1071;52.544;13.374;2023-03-20T01:03:12;4.53;;;4.13;;
2129;SDS011;1071;52.544;13.374;2023-03-20T01:05:41;3.60;;;3.40;;
2129;SDS011;1071;52.544;13.374;2023-03-20T01:08:10;4.53;;;3.70;;
2129;SDS011;1071;52.544;13.374;2023-03-20T01:10:39;4.17;;;3.87;;
2129;SDS011;1071;52.544;13.374;2023-03-20T01:13:09;4.88;;;4.35;;
2129;SDS011;1071;52.544;13.374;2023-03-20T01:15:42;4.13;;;3.72;;
2129;SDS011;1071;52.544;13.374;2023-03-20T01:18:14;4.60;;;4.20;;
2129;SDS011;1071;52.544;13.374;2023-03-20T01:20:41;5.43;;;4.78;;
2129;SDS011;1071;52.544;13.374;2023-03-20T01:23:10;5.35;;;4.85;;
2129;SDS011;1071;52.544;13.374;2023-03-20T01:25:41;4.82;;;4.35;;
2129;SDS011;1071;52.544;13.374;2023-03-20T01:28:13;5.40;;;4.90;;
2129;SDS011;1071;52.544;13.374;2023-03-20T01:30:42;4.70;;;4.35;;
2129;SDS011;1071;52.544;13.374;2023-03-20T01:33:15;5.10;;;4.70;;
2129;SDS011;1071;52.544;13.374;2023-03-20T01:35:43;5.90;;;4.82;;
2129;SDS011;1071;52.544;13.374;2023-03-20T01:38:19;4.40;;;4.00;;
2129;SDS011;1071;52.544;13.374;2023-03-20T01:40:49;5.60;;;4.93;;
2129;SDS011;1071;52.544;13.374;2023-03-20T01:43:20;5.20;;;4.80;;
2129;SDS011;1071;52.544;13.374;2023-03-20T01:45:51;5.00;;;4.70;;
2129;SDS011;1071;52.544;13.374;2023-03-20T01:48:26;5.10;;;4.60;;
2129;SDS011;1071;52.544;13.374;2023-03-20T01:51:02;4.97;;;4.57;;
2129;SDS011;1071;52.544;13.374;2023-03-20T01:53:30;5.22;;;4.78;;
2129;SDS011;1071;52.544;13.374;2023-03-20T01:55:57;5.68;;;5.18;;
2129;SDS011;1071;52.544;13.374;2023-03-20T01:58:26;7.85;;;5.45;;
2129;SDS011;1071;52.544;13.374;2023-03-20T02:01:01;5.47;;;5.07;;
2129;SDS011;1071;52.544;13.374;2023-03-20T02:03:31;4.70;;;4.40;;
2129;SDS011;1071;52.544;13.374;2023-03-20T02:05:59;5.23;;;4.73;;
2129;SDS011;1071;52.544;13.374;2023-03-20T02:08:32;5.10;;;4.60;;
2129;SDS011;1071;52.544;13.374;2023-03-20T02:11:07;5.63;;;4.63;;
2129;SDS011;1071;52.544;13.374;2023-03-20T02:13:37;5.03;;;4.68;;
2129;SDS011;1071;52.544;13.374;2023-03-20T02:16:06;5.55;;;5.07;;
2129;SDS011;1071;52.544;13.374;2023-03-20T02:18:37;8.82;;;4.47;;
2129;SDS011;1071;52.544;13.374;2023-03-20T02:24:31;5.05;;;4.65;;
2129;SDS011;1071;52.544;13.374;2023-03-20T02:27:40;5.13;;;4.73;;
2129;SDS011;1071;52.544;13.374;2023-03-20T02:30:24;5.65;;;5.05;;
2129;SDS011;1071;52.544;13.374;2023-03-20T02:33:21;4.90;;;4.40;;
2129;SDS011;1071;52.544;13.374;2023-03-20T02:36:28;5.10;;;4.70;;
2129;SDS011;1071;52.544;13.374;2023-03-20T02:39:36;5.13;;;4.65;;
2129;SDS011;1071;52.544;13.374;2023-03-20T02:42:23;4.80;;;4.45;;
2129;SDS011;1071;52.544;13.374;2023-03-20T02:44:59;7.45;;;6.75;;
2129;SDS011;1071;52.544;13.374;2023-03-20T02:47:31;5.97;;;5.40;;
2129;SDS011;1071;52.544;13.374;2023-03-20T02:50:09;5.88;;;5.47;;
2129;SDS011;1071;52.544;13.374;2023-03-20T02:52:41;5.60;;;5.20;;
2129;SDS011;1071;52.544;13.374;2023-03-20T02:55:18;6.53;;;5.93;;
2129;SDS011;1071;52.544;13.374;2023-03-20T02:57:55;5.28;;;4.78;;
2129;SDS011;1071;52.544;13.374;2023-03-20T03:00:27;5.82;;;4.85;;
2129;SDS011;1071;52.544;13.374;2023-03-20T03:03:00;6.30;;;5.80;;
2129;SDS011;1071;52.544;13.374;2023-03-20T03:05:36;6.22;;;5.57;;
2129;SDS011;1071;52.544;13.374;2023-03-20T03:08:08;5.87;;;5.37;;
2129;SDS011;1071;52.544;13.374;2023-03-20T03:10:42;5.97;;;5.38;;
2129;SDS011;1071;52.544;13.374;2023-03-20T03:13:13;4.78;;;4.47;;
2129;SDS011;1071;52.544;13.374;2023-03-20T03:15:45;5.97;;;5.57;;
2129;SDS011;1071;52.544;13.374;2023-03-20T03:18:15;5.83;;;5.33;;
2129;SDS011;1071;52.544;13.374;2023-03-20T03:20:46;6.00;;;5.50;;
2129;SDS011;1071;52.544;13.374;2023-03-20T03:23:17;6.75;;;5.72;;
2129;SDS011;1071;52.544;13.374;2023-03-20T03:25:55;6.07;;;5.68;;
2129;SDS011;1071;52.544;13.374;2023-03-20T03:28:27;6.72;;;5.78;;
2129;SDS011;1071;52.544;13.374;2023-03-20T03:31:01;6.68;;;6.07;;
2129;SDS011;1071;52.544;13.374;2023-03-20T03:33:31;5.53;;;5.03;;
2129;SDS011;1071;52.544;13.374;2023-03-20T03:36:05;6.40;;;5.90;;
2129;SDS011;1071;52.544;13.374;2023-03-20T03:38:39;5.70;;;5.30;;
2129;SDS011;1071;52.544;13.374;2023-03-20T03:41:15;6.05;;;5.47;;
2129;SDS011;1071;52.544;13.374;2023-03-20T03:43:50;6.90;;;6.30;;
2129;SDS011;1071;52.544;13.374;2023-03-20T03:46:23;6.40;;;5.80;;
2129;SDS011;1071;52.544;13.374;2023-03-20T03:48:58;5.73;;;5.23;;
2129;SDS011;1071;52.544;13.374;2023-03-20T03:51:28;5.80;;;5.40;;
2129;SDS011;1071;52.544;13.374;2023-03-20T03:53:59;6.25;;;5.72;;
2129;SDS011;1071;52.544;13.374;2023-03-20T03:56:31;6.25;;;5.75;;
2129;SDS011;1071;52.544;13.374;2023-03-20T03:59:03;7.95;;;6.65;;
2129;SDS011;1071;52.544;13.374;2023-03-20T04:01:35;6.85;;;6.25;;
2129;SDS011;1071;52.544;13.374;2023-03-20T04:04:08;6.80;;;6.10;;
2129;SDS011;1071;52.544;13.374;2023-03-20T04:06:37;6.78;;;6.15;;
2129;SDS011;1071;52.544;13.374;2023-03-20T04:09:04;6.07;;;5.47;;
2129;SDS011;1071;52.544;13.374;2023-03-20T04:11:33;7.00;;;6.25;;
2129;SDS011;1071;52.544;13.374;2023-03-20T04:14:02;7.60;;;7.00;;
2129;SDS011;1071;52.544;13.374;2023-03-20T04:16:29;7.05;;;5.68;;
2129;SDS011;1071;52.544;13.374;2023-03-20T04:18:57;7.25;;;6.60;;
2129;SDS011;1071;52.544;13.374;2023-03-20T04:21:24;7.25;;;6.75;;
2129;SDS011;1071;52.544;13.374;2023-03-20T04:23:52;6.80;;;6.25;;
2129;SDS011;1071;52.544;13.374;2023-03-20T04:26:19;7.50;;;6.78;;
2129;SDS011;1071;52.544;13.374;2023-03-20T04:28:47;7.38;;;6.68;;
2129;SDS011;1071;52.544;13.374;2023-03-20T04:31:15;7.20;;;6.55;;
2129;SDS011;1071;52.544;13.374;2023-03-20T04:33:43;6.97;;;6.28;;
2129;SDS011;1071;52.544;13.374;2023-03-20T04:36:10;8.73;;;7.55;;
2129;SDS011;1071;52.544;13.374;2023-03-20T04:41:19;7.55;;;6.95;;
2129;SDS011;1071;52.544;13.374;2023-03-20T04:43:48;6.90;;;6.20;;
2129;SDS011;1071;52.544;13.374;2023-03-20T04:46:15;6.90;;;6.40;;
2129;SDS011;1071;52.544;13.374;2023-03-20T04:48:42;6.72;;;6.13;;
2129;SDS011;1071;52.544;13.374;2023-03-20T04:51:08;7.85;;;7.15;;
2129;SDS011;1071;52.544;13.374;2023-03-20T04:53:36;7.93;;;7.13;;
2129;SDS011;1071;52.544;13.374;2023-03-20T04:56:03;7.72;;;7.03;;
2129;SDS011;1071;52.544;13.374;2023-03-20T04:58:30;7.95;;;7.15;;
2129;SDS011;1071;52.544;13.374;2023-03-20T05:00:58;8.75;;;7.85;;
2129;SDS011;1071;52.544;13.374;2023-03-20T05:03:25;7.90;;;7.18;;
2129;SDS011;1071;52.544;13.374;2023-03-20T05:05:52;7.65;;;7.05;;
2129;SDS011;1071;52.544;13.374;2023-03-20T05:08:19;8.20;;;7.40;;
2129;SDS011;1071;52.544;13.374;2023-03-20T05:10:46;10.63;;;8.40;;
2129;SDS011;1071;52.544;13.374;2023-03-20T05:13:14;7.70;;;7.00;;
2129;SDS011;1071;52.544;13.374;2023-03-20T05:15:41;8.10;;;7.45;;
2129;SDS011;1071;52.544;13.374;2023-03-20T05:18:10;8.93;;;7.95;;
2129;SDS011;1071;52.544;13.374;2023-03-20T05:20:37;7.47;;;6.85;;
2129;SDS011;1071;52.544;13.374;2023-03-20T05:23:04;8.50;;;7.63;;
2129;SDS011;1071;52.544;13.374;2023-03-20T05:25:33;7.72;;;6.95;;
2129;SDS011;1071;52.544;13.374;2023-03-20T05:28:00;8.13;;;7.43;;
2129;SDS011;1071;52.544;13.374;2023-03-20T05:30:27;8.98;;;8.18;;
2129;SDS011;1071;52.544;13.374;2023-03-20T05:32:54;8.97;;;8.10;;
2129;SDS011;1071;52.544;13.374;2023-03-20T05:35:23;9.75;;;8.80;;
2129;SDS011;1071;52.544;13.374;2023-03-20T05:37:50;9.88;;;8.88;;
2129;SDS011;1071;52.544;13.374;2023-03-20T05:40:17;9.68;;;8.68;;
2129;SDS011;1071;52.544;13.374;2023-03-20T05:42:48;9.25;;;8.45;;
2129;SDS011;1071;52.544;13.374;2023-03-20T05:45:15;9.45;;;8.48;;
2129;SDS011;1071;52.544;13.374;2023-03-20T05:47:42;9.27;;;8.48;;
2129;SDS011;1071;52.544;13.374;2023-03-20T05:50:09;11.43;;;10.32;;
2129;SDS011;1071;52.544;13.374;2023-03-20T05:52:38;12.10;;;10.88;;
2129;SDS011;1071;52.544;13.374;2023-03-20T05:55:06;12.77;;;11.52;;
2129;SDS011;1071;52.544;13.374;2023-03-20T05:57:33;11.25;;;10.25;;
2129;SDS011;1071;52.544;13.374;2023-03-20T06:00:00;12.38;;;11.10;;
2129;SDS011;1071;52.544;13.374;2023-03-20T06:02:29;13.40;;;11.98;;
2129;SDS011;1071;52.544;13.374;2023-03-20T06:04:56;13.70;;;12.20;;
2129;SDS011;1071;52.544;13.374;2023-03-20T06:07:23;13.10;;;11.70;;
2129;SDS011;1071;52.544;13.374;2023-03-20T06:09:51;13.73;;;12.35;;
2129;SDS011;1071;52.544;13.374;2023-03-20T06:12:19;13.27;;;11.95;;
2129;SDS011;1071;52.544;13.374;2023-03-20T06:14:46;12.85;;;11.63;;
2129;SDS011;1071;52.544;13.374;2023-03-20T06:17:13;14.50;;;13.18;;
2129;SDS011;1071;52.544;13.374;2023-03-20T06:19:40;15.18;;;13.77;;
2129;SDS011;1071;52.544;13.374;2023-03-20T06:22:08;15.88;;;13.23;;
2129;SDS011;1071;52.544;13.374;2023-03-20T06:24:41;14.93;;;13.30;;
2129;SDS011;1071;52.544;13.374;2023-03-20T06:27:09;14.90;;;13.32;;
2129;SDS011;1071;52.544;13.374;2023-03-20T06:29:36;15.50;;;14.07;;
2129;SDS011;1071;52.544;13.374;2023-03-20T06:32:07;17.00;;;14.18;;
2129;SDS011;1071;52.544;13.374;2023-03-20T06:34:36;15.98;;;14.32;;
2129;SDS011;1071;52.544;13.374;2023-03-20T06:37:03;14.50;;;13.05;;
2129;SDS011;1071;52.544;13.374;2023-03-20T06:39:30;16.10;;;14.57;;
2129;SDS011;1071;52.544;13.374;2023-03-20T06:41:58;14.88;;;13.48;;
2129;SDS011;1071;52.544;13.374;2023-03-20T06:44:26;18.13;;;16.30;;
2129;SDS011;1071;52.544;13.374;2023-03-20T06:46:56;17.75;;;15.85;;
2129;SDS011;1071;52.544;13.374;2023-03-20T06:49:23;18.05;;;16.13;;
2129;SDS011;1071;52.544;13.374;2023-03-20T06:51:50;21.08;;;18.85;;
2129;SDS011;1071;52.544;13.374;2023-03-20T06:54:17;24.38;;;18.88;;
2129;SDS011;1071;52.544;13.374;2023-03-20T06:56:45;29.20;;;21.33;;
2129;SDS011;1071;52.544;13.374;2023-03-20T06:59:11;21.30;;;18.65;;
2129;SDS011;1071;52.544;13.374;2023-03-20T07:01:40;30.88;;;22.27;;
2129;SDS011;1071;52.544;13.374;2023-03-20T07:04:07;25.77;;;19.40;;
2129;SDS011;1071;52.544;13.374;2023-03-20T07:06:34;25.00;;;21.38;;
2129;SDS011;1071;52.544;13.374;2023-03-20T07:09:09;28.33;;;23.45;;
2129;SDS011;1071;52.544;13.374;2023-03-20T07:11:36;25.45;;;20.50;;
2129;SDS011;1071;52.544;13.374;2023-03-20T07:14:04;29.38;;;23.90;;
2129;SDS011;1071;52.544;13.374;2023-03-20T07:16:31;31.25;;;24.00;;
2129;SDS011;1071;52.544;13.374;2023-03-20T07:18:59;25.30;;;21.95;;
2129;SDS011;1071;52.544;13.374;2023-03-20T07:21:26;24.58;;;19.00;;
2129;SDS011;1071;52.544;13.374;2023-03-20T07:23:54;29.73;;;22.42;;
2129;SDS011;1071;52.544;13.374;2023-03-20T07:26:22;28.80;;;21.15;;
2129;SDS011;1071;52.544;13.374;2023-03-20T07:28:49;26.40;;;21.15;;
2129;SDS011;1071;52.544;13.374;2023-03-20T07:31:20;27.88;;;21.52;;
2129;SDS011;1071;52.544;13.374;2023-03-20T07:33:48;28.55;;;20.98;;
2129;SDS011;1071;52.544;13.374;2023-03-20T07:36:19;27.38;;;20.02;;
2129;SDS011;1071;52.544;13.374;2023-03-20T07:38:46;26.05;;;19.60;;
2129;SDS011;1071;52.544;13.374;2023-03-20T07:41:13;24.10;;;20.05;;
2129;SDS011;1071;52.544;13.374;2023-03-20T07:43:41;24.80;;;21.10;;
2129;SDS011;1071;52.544;13.374;2023-03-20T07:46:08;25.52;;;20.13;;
2129;SDS011;1071;52.544;13.374;2023-03-20T07:48:37;24.33;;;19.83;;
2129;SDS011;1071;52.544;13.374;2023-03-20T07:51:04;25.35;;;20.70;;
2129;SDS011;1071;52.544;13.374;2023-03-20T07:53:34;27.75;;;21.92;;
2129;SDS011;1071;52.544;13.374;2023-03-20T07:56:01;25.52;;;21.00;;
2129;SDS011;1071;52.544;13.374;2023-03-20T07:58:28;23.95;;;18.52;;
2129;SDS011;1071;52.544;13.374;2023-03-20T08:00:56;28.20;;;20.58;;
2129;SDS011;1071;52.544;13.374;2023-03-20T08:03:23;28.23;;;20.55;;
2129;SDS011;1071;52.544;13.374;2023-03-20T08:05:50;23.88;;;19.45;;
2129;SDS011;1071;52.544;13.374;2023-03-20T08:08:17;30.13;;;22.02;;
2129;SDS011;1071;52.544;13.374;2023-03-20T08:10:45;24.00;;;19.13;;
2129;SDS011;1071;52.544;13.374;2023-03-20T08:13:13;26.60;;;20.08;;
2129;SDS011;1071;52.544;13.374;2023-03-20T08:15:45;28.70;;;21.47;;
2129;SDS011;1071;52.544;13.374;2023-03-20T08:18:12;25.98;;;18.60;;
2129;SDS011;1071;52.544;13.374;2023-03-20T08:20:40;31.30;;;20.55;;
2129;SDS011;1071;52.544;13.374;2023-03-20T08:23:07;23.17;;;19.08;;
2129;SDS011;1071;52.544;13.374;2023-03-20T08:25:34;28.55;;;18.67;;
2129;SDS011;1071;52.544;13.374;2023-03-20T08:28:02;29.63;;;20.15;;
2129;SDS011;1071;52.544;13.374;2023-03-20T08:30:29;28.15;;;20.35;;
2129;SDS011;1071;52.544;13.374;2023-03-20T08:32:56;26.30;;;19.60;;
2129;SDS011;1071;52.544;13.374;2023-03-20T08:35:23;23.75;;;18.67;;
2129;SDS011;1071;52.544;13.374;2023-03-20T08:37:50;24.85;;;17.88;;
2129;SDS011;1071;52.544;13.374;2023-03-20T08:40:17;23.90;;;17.20;;
2129;SDS011;1071;52.544;13.374;2023-03-20T08:42:45;29.50;;;18.60;;
2129;SDS011;1071;52.544;13.374;2023-03-20T08:45:13;23.38;;;17.35;;
2129;SDS011;1071;52.544;13.374;2023-03-20T08:47:41;26.42;;;17.80;;
2129;SDS011;1071;52.544;13.374;2023-03-20T08:50:08;25.17;;;17.40;;
2129;SDS011;1071;52.544;13.374;2023-03-20T08:52:36;25.15;;;16.90;;
2129;SDS011;1071;52.544;13.374;2023-03-20T08:55:08;20.60;;;16.17;;
2129;SDS011;1071;52.544;13.374;2023-03-20T08:57:35;19.83;;;15.02;;
2129;SDS011;1071;52.544;13.374;2023-03-20T09:00:03;20.87;;;15.60;;
2129;SDS011;1071;52.544;13.374;2023-03-20T09:02:32;34.80;;;21.88;;
2129;SDS011;1071;52.544;13.374;2023-03-20T09:05:00;22.73;;;16.60;;
2129;SDS011;1071;52.544;13.374;2023-03-20T09:07:27;20.37;;;15.40;;
2129;SDS011;1071;52.544;13.374;2023-03-20T09:09:54;22.85;;;15.57;;
2129;SDS011;1071;52.544;13.374;2023-03-20T09:12:21;21.53;;;16.50;;
2129;SDS011;1071;52.544;13.374;2023-03-20T09:14:48;23.10;;;16.70;;
2129;SDS011;1071;52.544;13.374;2023-03-20T09:17:15;23.37;;;17.90;;
2129;SDS011;1071;52.544;13.374;2023-03-20T09:19:43;20.00;;;14.93;;
2129;SDS011;1071;52.544;13.374;2023-03-20T09:22:11;28.30;;;21.20;;
2129;SDS011;1071;52.544;13.374;2023-03-20T09:24:38;21.97;;;15.93;;
2129;SDS011;1071;52.544;13.374;2023-03-20T09:27:06;19.03;;;14.40;;
2129;SDS011;1071;52.544;13.374;2023-03-20T09:29:33;22.60;;;18.03;;
2129;SDS011;1071;52.544;13.374;2023-03-20T09:32:00;18.23;;;14.23;;
2129;SDS011;1071;52.544;13.374;2023-03-20T09:34:31;20.00;;;14.70;;
2129;SDS011;1071;52.544;13.374;2023-03-20T09:36:59;17.10;;;14.60;;
2129;SDS011;1071;52.544;13.374;2023-03-20T09:39:27;14.40;;;12.50;;
2129;SDS011;1071;52.544;13.374;2023-03-20T09:41:54;14.60;;;12.90;;
2129;SDS011;1071;52.544;13.374;2023-03-20T09:44:40;16.37;;;12.57;;
2129;SDS011;1071;52.544;13.374;2023-03-20T09:47:17;18.73;;;13.90;;
2129;SDS011;1071;52.544;13.374;2023-03-20T09:49:54;18.30;;;12.77;;
2129;SDS011;1071;52.544;13.374;2023-03-20T09:52:32;17.93;;;13.63;;
2129;SDS011;1071;52.544;13.374;2023-03-20T09:55:03;14.30;;;12.43;;
2129;SDS011;1071;52.544;13.374;2023-03-20T09:57:37;13.33;;;11.50;;
2129;SDS011;1071;52.544;13.374;2023-03-20T10:00:09;16.77;;;11.83;;
2129;SDS011;1071;52.544;13.374;2023-03-20T10:02:42;15.40;;;12.70;;
2129;SDS011;1071;52.544;13.374;2023-03-20T10:05:17;17.97;;;12.80;;
2129;SDS011;1071;52.544;13.374;2023-03-20T10:07:50;15.10;;;12.37;;
2129;SDS011;1071;52.544;13.374;2023-03-20T10:10:19;13.67;;;11.77;;
2129;SDS011;1071;52.544;13.374;2023-03-20T10:12:57;13.23;;;10.80;;
2129;SDS011;1071;52.544;13.374;2023-03-20T10:15:36;11.67;;;10.20;;
2129;SDS011;1071;52.544;13.374;2023-03-20T10:18:11;11.03;;;9.40;;
2129;SDS011;1071;52.544;13.374;2023-03-20T10:20:45;15.47;;;11.20;;
2129;SDS011;1071;52.544;13.374;2023-03-20T10:23:25;15.30;;;10.50;;
2129;SDS011;1071;52.544;13.374;2023-03-20T10:25:59;17.63;;;12.63;;
2129;SDS011;1071;52.544;13.374;2023-03-20T10:28:31;13.33;;;11.53;;
2129;SDS011;1071;52.544;13.374;2023-03-20T10:31:12;15.90;;;14.20;;
2129;SDS011;1071;52.544;13.374;2023-03-20T10:33:53;20.60;;;15.23;;
2129;SDS011;1071;52.544;13.374;2023-03-20T10:36:33;17.40;;;13.80;;
2129;SDS011;1071;52.544;13.374;2023-03-20T10:39:14;12.43;;;10.30;;
2129;SDS011;1071;52.544;13.374;2023-03-20T10:41:49;12.73;;;9.90;;
2129;SDS011;1071;52.544;13.374;2023-03-20T10:44:28;11.53;;;8.30;;
2129;SDS011;1071;52.544;13.374;2023-03-20T10:47:00;15.67;;;11.23;;
2129;SDS011;1071;52.544;13.374;2023-03-20T10:49:33;10.60;;;9.50;;
2129;SDS011;1071;52.544;13.374;2023-03-20T10:52:06;15.07;;;8.60;;
2129;SDS011;1071;52.544;13.374;2023-03-20T10:54:39;11.23;;;10.03;;
2129;SDS011;1071;52.544;13.374;2023-03-20T10:57:10;14.80;;;11.50;;
2129;SDS011;1071;52.544;13.374;2023-03-20T10:59:41;12.57;;;9.63;;
2129;SDS011;1071;52.544;13.374;2023-03-20T11:02:13;9.90;;;8.20;;
2129;SDS011;1071;52.544;13.374;2023-03-20T11:04:41;12.20;;;8.60;;
2129;SDS011;1071;52.544;13.374;2023-03-20T11:07:11;9.77;;;7.97;;
2129;SDS011;1071;52.544;13.374;2023-03-20T11:09:46;9.33;;;8.43;;
2129;SDS011;1071;52.544;13.374;2023-03-20T11:12:35;11.40;;;9.60;;
2129;SDS011;1071;52.544;13.374;2023-03-20T11:15:13;10.33;;;7.87;;
2129;SDS011;1071;52.544;13.374;2023-03-20T11:17:49;10.17;;;8.00;;
2129;SDS011;1071;52.544;13.374;2023-03-20T11:20:22;10.23;;;7.67;;
2129;SDS011;1071;52.544;13.374;2023-03-20T11:22:57;11.03;;;8.83;;
2129;SDS011;1071;52.544;13.374;2023-03-20T11:25:35;11.10;;;8.27;;
2129;SDS011;1071;52.544;13.374;2023-03-20T11:28:20;12.97;;;9.97;;
2129;SDS011;1071;52.544;13.374;2023-03-20T11:30:56;12.03;;;8.70;;
2129;SDS011;1071;52.544;13.374;2023-03-20T11:33:26;8.90;;;8.00;;
2129;SDS011;1071;52.544;13.374;2023-03-20T11:35:55;9.53;;;8.00;;
2129;SDS011;1071;52.544;13.374;2023-03-20T11:38:25;11.93;;;9.10;;
2129;SDS011;1071;52.544;13.374;2023-03-20T11:40:56;16.53;;;9.67;;
2129;SDS011;1071;52.544;13.374;2023-03-20T11:43:24;10.97;;;8.00;;
2129;SDS011;1071;52.544;13.374;2023-03-20T11:45:53;11.50;;;8.20;;
2129;SDS011;1071;52.544;13.374;2023-03-20T11:48:23;11.00;;;9.10;;
2129;SDS011;1071;52.544;13.374;2023-03-20T11:50:55;9.97;;;7.50;;
2129;SDS011;1071;52.544;13.374;2023-03-20T11:53:27;11.07;;;9.43;;
2129;SDS011;1071;52.544;13.374;2023-03-20T11:56:05;9.57;;;7.93;;
2129;SDS011;1071;52.544;13.374;2023-03-20T11:58:36;10.90;;;7.77;;
2129;SDS011;1071;52.544;13.374;2023-03-20T12:01:06;12.10;;;8.63;;
2129;SDS011;1071;52.544;13.374;2023-03-20T12:03:39;12.57;;;10.03;;
2129;SDS011;1071;52.544;13.374;2023-03-20T12:06:15;12.57;;;9.20;;
2129;SDS011;1071;52.544;13.374;2023-03-20T12:08:45;12.30;;;10.20;;
2129;SDS011;1071;52.544;13.374;2023-03-20T12:11:20;11.13;;;9.87;;
2129;SDS011;1071;52.544;13.374;2023-03-20T12:13:59;11.23;;;8.13;;
2129;SDS011;1071;52.544;13.374;2023-03-20T12:16:28;9.47;;;8.43;;
2129;SDS011;1071;52.544;13.374;2023-03-20T12:18:58;10.13;;;8.43;;
2129;SDS011;1071;52.544;13.374;2023-03-20T12:21:34;11.50;;;10.30;;
2129;SDS011;1071;52.544;13.374;2023-03-20T12:24:07;9.43;;;8.33;;
2129;SDS011;1071;52.544;13.374;2023-03-20T12:26:41;12.20;;;8.00;;
2129;SDS011;1071;52.544;13.374;2023-03-20T12:29:21;11.60;;;8.47;;
2129;SDS011;1071;52.544;13.374;2023-03-20T12:31:53;13.47;;;10.07;;
2129;SDS011;1071;52.544;13.374;2023-03-20T12:34:28;12.40;;;9.47;;
2129;SDS011;1071;52.544;13.374;2023-03-20T12:37:01;11.77;;;9.80;;
2129;SDS011;1071;52.544;13.374;2023-03-20T12:39:30;9.73;;;8.20;;
2129;SDS011;1071;52.544;13.374;2023-03-20T12:42:03;11.00;;;8.87;;
2129;SDS011;1071;52.544;13.374;2023-03-20T12:44:40;18.20;;;10.90;;
2129;SDS011;1071;52.544;13.374;2023-03-20T12:47:24;14.60;;;12.47;;
2129;SDS011;1071;52.544;13.374;2023-03-20T12:50:06;11.87;;;9.23;;
2129;SDS011;1071;52.544;13.374;2023-03-20T12:52:44;11.63;;;8.80;;
2129;SDS011;1071;52.544;13.374;2023-03-20T12:55:21;13.93;;;11.70;;
2129;SDS011;1071;52.544;13.374;2023-03-20T12:57:59;15.70;;;12.43;;
2129;SDS011;1071;52.544;13.374;2023-03-20T13:00:39;12.97;;;11.23;;
2129;SDS011;1071;52.544;13.374;2023-03-20T13:03:32;14.83;;;11.30;;
2129;SDS011;1071;52.544;13.374;2023-03-20T13:06:14;13.77;;;10.23;;
2129;SDS011;1071;52.544;13.374;2023-03-20T13:08:55;13.40;;;10.13;;
2129;SDS011;1071;52.544;13.374;2023-03-20T13:11:41;17.80;;;11.50;;
2129;SDS011;1071;52.544;13.374;2023-03-20T13:14:17;11.87;;;9.80;;
2129;SDS011;1071;52.544;13.374;2023-03-20T13:16:53;15.33;;;11.37;;
2129;SDS011;1071;52.544;13.374;2023-03-20T13:19:29;13.80;;;10.27;;
2129;SDS011;1071;52.544;13.374;2023-03-20T13:22:01;13.63;;;10.77;;
2129;SDS011;1071;52.544;13.374;2023-03-20T13:24:34;12.47;;;9.90;;
2129;SDS011;1071;52.544;13.374;2023-03-20T13:27:14;10.73;;;9.63;;
2129;SDS011;1071;52.544;13.374;2023-03-20T13:29:54;19.67;;;15.30;;
2129;SDS011;1071;52.544;13.374;2023-03-20T13:32:30;14.50;;;11.60;;
2129;SDS011;1071;52.544;13.374;2023-03-20T13:35:12;13.47;;;11.13;;
2129;SDS011;1071;52.544;13.374;2023-03-20T13:37:49;15.93;;;12.70;;
2129;SDS011;1071;52.544;13.374;2023-03-20T13:40:20;16.77;;;12.40;;
2129;SDS011;1071;52.544;13.374;2023-03-20T13:42:51;14.60;;;11.47;;
2129;SDS011;1071;52.544;13.374;2023-03-20T13:45:26;13.80;;;11.40;;
2129;SDS011;1071;52.544;13.374;2023-03-20T13:47:57;14.20;;;11.97;;
2129;SDS011;1071;52.544;13.374;2023-03-20T13:50:32;15.83;;;12.50;;
2129;SDS011;1071;52.544;13.374;2023-03-20T13:53:09;16.37;;;12.27;;
2129;SDS011;1071;52.544;13.374;2023-03-20T13:55:47;14.77;;;10.30;;
2129;SDS011;1071;52.544;13.374;2023-03-20T13:58:23;15.40;;;10.63;;
2129;SDS011;1071;52.544;13.374;2023-03-20T14:01:04;11.60;;;10.40;;
2129;SDS011;1071;52.544;13.374;2023-03-20T14:03:37;14.37;;;10.27;;
2129;SDS011;1071;52.544;13.374;2023-03-20T14:06:16;14.30;;;10.73;;
2129;SDS011;1071;52.544;13.374;2023-03-20T14:09:04;13.30;;;11.13;;
2129;SDS011;1071;52.544;13.374;2023-03-20T14:11:51;12.33;;;9.70;;
2129;SDS011;1071;52.544;13.374;2023-03-20T14:14:23;16.40;;;13.97;;
2129;SDS011;1071;52.544;13.374;2023-03-20T14:17:00;15.73;;;11.50;;
2129;SDS011;1071;52.544;13.374;2023-03-20T14:19:32;14.53;;;11.80;;
2129;SDS011;1071;52.544;13.374;2023-03-20T14:22:03;15.60;;;12.00;;
2129;SDS011;1071;52.544;13.374;2023-03-20T14:24:33;17.07;;;11.00;;
2129;SDS011;1071;52.544;13.374;2023-03-20T14:27:02;13.67;;;10.80;;
2129;SDS011;1071;52.544;13.374;2023-03-20T14:29:32;18.57;;;13.63;;
2129;SDS011;1071;52.544;13.374;2023-03-20T14:32:03;17.70;;;11.40;;
2129;SDS011;1071;52.544;13.374;2023-03-20T14:34:47;14.13;;;10.53;;
2129;SDS011;1071;52.544;13.374;2023-03-20T14:37:26;12.70;;;9.83;;
2129;SDS011;1071;52.544;13.374;2023-03-20T14:39:59;13.87;;;11.20;;
2129;SDS011;1071;52.544;13.374;2023-03-20T14:42:35;13.40;;;10.77;;
2129;SDS011;1071;52.544;13.374;2023-03-20T14:48:10;16.80;;;12.90;;
2129;SDS011;1071;52.544;13.374;2023-03-20T14:50:49;14.80;;;12.37;;
2129;SDS011;1071;52.544;13.374;2023-03-20T14:53:20;19.33;;;14.33;;
2129;SDS011;1071;52.544;13.374;2023-03-20T14:56:00;17.10;;;12.67;;
2129;SDS011;1071;52.544;13.374;2023-03-20T14:58:46;32.63;;;24.57;;
2129;SDS011;1071;52.544;13.374;2023-03-20T15:01:27;16.10;;;13.03;;
2129;SDS011;1071;52.544;13.374;2023-03-20T15:04:13;15.00;;;10.90;;
2129;SDS011;1071;52.544;13.374;2023-03-20T15:06:55;18.20;;;13.30;;
2129;SDS011;1071;52.544;13.374;2023-03-20T15:09:27;18.17;;;13.40;;
2129;SDS011;1071;52.544;13.374;2023-03-20T15:11:58;19.97;;;15.07;;
2129;SDS011;1071;52.544;13.374;2023-03-20T15:14:29;15.80;;;12.40;;
2129;SDS011;1071;52.544;13.374;2023-03-20T15:17:01;15.03;;;11.30;;
2129;SDS011;1071;52.544;13.374;2023-03-20T15:19:44;17.40;;;11.93;;
2129;SDS011;1071;52.544;13.374;2023-03-20T15:22:13;16.70;;;11.87;;
2129;SDS011;1071;52.544;13.374;2023-03-20T15:24:50;15.00;;;11.17;;